HVN422 RKSI-RKPK
Flight info
| Callsign | HVN422 |
|---|---|
| Flight time | 0h 38m |
| Altitude | 22000 |
| Route | OSPOT2A OSPOT Y782 TGU Z83 MASTA KEVOX3 |
| Aircraft | B789/H-SDE1E2E3FGHIJ2J3J4J5M1RWXY/LB1D1 |
Departure
| Time | 2026-05-01 13:07 |
|---|---|
| Airport | Incheon International Airport (RKSI) |
Arrival
| Time | 2026-05-01 13:45 |
|---|---|
| Airport | Gimhae International Airport (RKPK) |
| Time | Latitude | Longitude | Altitude | Speed | Heading |
|---|---|---|---|---|---|
| 2026-05-01 12:41 | 37.45733 | 126.44913 | 38 ft | 0 kts | 324° |
| 2026-05-01 12:53 | 37.45714 | 126.44929 | 34 ft | 2 kts | 328° |
| 2026-05-01 12:53 | 37.45700 | 126.44939 | 36 ft | 2 kts | 334° |
| 2026-05-01 12:53 | 37.45684 | 126.44946 | 37 ft | 2 kts | 347° |
| 2026-05-01 12:54 | 37.45668 | 126.44946 | 37 ft | 2 kts | 21° |
| 2026-05-01 12:54 | 37.45654 | 126.44932 | 38 ft | 0 kts | 51° |
| 2026-05-01 12:58 | 37.45662 | 126.44944 | 36 ft | 4 kts | 52° |
| 2026-05-01 12:58 | 37.45689 | 126.44992 | 38 ft | 10 kts | 54° |
| 2026-05-01 12:59 | 37.45707 | 126.45174 | 38 ft | 11 kts | 147° |
| 2026-05-01 12:59 | 37.45651 | 126.45245 | 38 ft | 12 kts | 100° |
| 2026-05-01 12:59 | 37.45656 | 126.45461 | 38 ft | 15 kts | 143° |
| 2026-05-01 13:00 | 37.45439 | 126.45657 | 38 ft | 23 kts | 144° |
| 2026-05-01 13:00 | 37.45338 | 126.45747 | 38 ft | 17 kts | 144° |
| 2026-05-01 13:01 | 37.45325 | 126.45893 | 38 ft | 9 kts | 54° |
| 2026-05-01 13:01 | 37.45363 | 126.45959 | 38 ft | 5 kts | 54° |
| 2026-05-01 13:07 | 37.65664 | 126.39845 | 5499 ft | 287 kts | 66° |
| 2026-05-01 13:07 | 37.66336 | 126.42230 | 5495 ft | 289 kts | 68° |
| 2026-05-01 13:07 | 37.66747 | 126.44717 | 5486 ft | 293 kts | 91° |
| 2026-05-01 13:08 | 37.66293 | 126.47231 | 6047 ft | 294 kts | 109° |
| 2026-05-01 13:08 | 37.65601 | 126.49688 | 6939 ft | 300 kts | 109° |
| 2026-05-01 13:08 | 37.64897 | 126.52101 | 7826 ft | 304 kts | 109° |
| 2026-05-01 13:08 | 37.64049 | 126.54555 | 8663 ft | 310 kts | 124° |
| 2026-05-01 13:09 | 37.62537 | 126.56513 | 9497 ft | 314 kts | 138° |
| 2026-05-01 13:09 | 37.60916 | 126.58400 | 10254 ft | 321 kts | 139° |
| 2026-05-01 13:09 | 37.59209 | 126.60340 | 10483 ft | 348 kts | 139° |
| 2026-05-01 13:09 | 37.57342 | 126.62459 | 10625 ft | 375 kts | 139° |
| 2026-05-01 13:10 | 37.55378 | 126.64709 | 11213 ft | 383 kts | 138° |
| 2026-05-01 13:10 | 37.53398 | 126.66980 | 11989 ft | 387 kts | 138° |
| 2026-05-01 13:10 | 37.51394 | 126.69265 | 12719 ft | 391 kts | 139° |
| 2026-05-01 13:10 | 37.49369 | 126.71570 | 13449 ft | 395 kts | 138° |
| 2026-05-01 13:11 | 37.47321 | 126.73904 | 14119 ft | 399 kts | 138° |
| 2026-05-01 13:11 | 37.45253 | 126.76260 | 14721 ft | 404 kts | 138° |
| 2026-05-01 13:11 | 37.43152 | 126.78652 | 15300 ft | 409 kts | 138° |
| 2026-05-01 13:11 | 37.41010 | 126.81034 | 15876 ft | 413 kts | 143° |
| 2026-05-01 13:12 | 37.38682 | 126.83172 | 16402 ft | 417 kts | 144° |
| 2026-05-01 13:12 | 37.36364 | 126.85411 | 17012 ft | 421 kts | 143° |
| 2026-05-01 13:12 | 37.34035 | 126.87663 | 17574 ft | 425 kts | 144° |
| 2026-05-01 13:12 | 37.31683 | 126.89874 | 18127 ft | 429 kts | 144° |
| 2026-05-01 13:13 | 37.29244 | 126.92157 | 18619 ft | 433 kts | 144° |
| 2026-05-01 13:13 | 37.26823 | 126.94455 | 19076 ft | 438 kts | 144° |
| 2026-05-01 13:13 | 37.24381 | 126.96781 | 19511 ft | 442 kts | 144° |
| 2026-05-01 13:13 | 37.21943 | 126.99086 | 19943 ft | 446 kts | 144° |
| 2026-05-01 13:14 | 37.19442 | 127.01440 | 20338 ft | 452 kts | 144° |
| 2026-05-01 13:14 | 37.16919 | 127.03819 | 20760 ft | 456 kts | 144° |
| 2026-05-01 13:14 | 37.14377 | 127.06220 | 21286 ft | 457 kts | 144° |
| 2026-05-01 13:14 | 37.11838 | 127.08615 | 21835 ft | 458 kts | 144° |
| 2026-05-01 13:15 | 37.09268 | 127.11031 | 21950 ft | 466 kts | 144° |
| 2026-05-01 13:15 | 37.06684 | 127.13460 | 21943 ft | 460 kts | 144° |
| 2026-05-01 13:15 | 37.04136 | 127.15856 | 21943 ft | 458 kts | 144° |
| 2026-05-01 13:15 | 37.01574 | 127.18262 | 22210 ft | 461 kts | 144° |
| 2026-05-01 13:16 | 36.99011 | 127.20665 | 22930 ft | 464 kts | 145° |
| 2026-05-01 13:16 | 36.96395 | 127.23115 | 22925 ft | 470 kts | 145° |
| 2026-05-01 13:16 | 36.93807 | 127.25541 | 22924 ft | 461 kts | 145° |
| 2026-05-01 13:17 | 36.86116 | 127.32729 | 22957 ft | 460 kts | 145° |
| 2026-05-01 13:17 | 36.83585 | 127.35180 | 22956 ft | 460 kts | 138° |
| 2026-05-01 13:18 | 36.79016 | 127.40803 | 22970 ft | 462 kts | 136° |
| 2026-05-01 13:18 | 36.76713 | 127.43599 | 22973 ft | 462 kts | 136° |
| 2026-05-01 13:18 | 36.74450 | 127.46384 | 22972 ft | 461 kts | 136° |
| 2026-05-01 13:18 | 36.72169 | 127.49201 | 22960 ft | 461 kts | 136° |
| 2026-05-01 13:19 | 36.69880 | 127.52006 | 22928 ft | 462 kts | 136° |
| 2026-05-01 13:19 | 36.67585 | 127.54804 | 22937 ft | 462 kts | 136° |
| 2026-05-01 13:19 | 36.62998 | 127.60415 | 22939 ft | 462 kts | 136° |
| 2026-05-01 13:20 | 36.61483 | 127.62267 | 22942 ft | 461 kts | 136° |
| 2026-05-01 13:20 | 36.59189 | 127.65063 | 22934 ft | 461 kts | 136° |
| 2026-05-01 13:20 | 36.56896 | 127.67856 | 22935 ft | 461 kts | 136° |
| 2026-05-01 13:21 | 36.52318 | 127.73432 | 22944 ft | 461 kts | 136° |
| 2026-05-01 13:21 | 36.50022 | 127.76223 | 22938 ft | 462 kts | 136° |
| 2026-05-01 13:21 | 36.47723 | 127.79015 | 22938 ft | 462 kts | 136° |
| 2026-05-01 13:21 | 36.45426 | 127.81803 | 22942 ft | 462 kts | 136° |
| 2026-05-01 13:22 | 36.43126 | 127.84593 | 22940 ft | 462 kts | 136° |
| 2026-05-01 13:22 | 36.40823 | 127.87387 | 22937 ft | 462 kts | 136° |
| 2026-05-01 13:22 | 36.38528 | 127.90168 | 22942 ft | 462 kts | 136° |
| 2026-05-01 13:22 | 36.36229 | 127.92951 | 22933 ft | 462 kts | 136° |
| 2026-05-01 13:23 | 36.33929 | 127.95732 | 22941 ft | 461 kts | 136° |
| 2026-05-01 13:23 | 36.31619 | 127.98523 | 22944 ft | 463 kts | 136° |
| 2026-05-01 13:23 | 36.29309 | 128.01312 | 22937 ft | 464 kts | 136° |
| 2026-05-01 13:23 | 36.26999 | 128.04098 | 22941 ft | 463 kts | 136° |
| 2026-05-01 13:24 | 36.24682 | 128.06889 | 22930 ft | 464 kts | 136° |
| 2026-05-01 13:24 | 36.22401 | 128.09634 | 22944 ft | 464 kts | 136° |
| 2026-05-01 13:24 | 36.20082 | 128.12423 | 22947 ft | 464 kts | 136° |
| 2026-05-01 13:25 | 36.15447 | 128.17990 | 22947 ft | 464 kts | 136° |
| 2026-05-01 13:25 | 36.13131 | 128.20767 | 22950 ft | 465 kts | 136° |
| 2026-05-01 13:25 | 36.10797 | 128.23564 | 22952 ft | 468 kts | 136° |
| 2026-05-01 13:25 | 36.08461 | 128.26360 | 22949 ft | 467 kts | 136° |
| 2026-05-01 13:26 | 36.06126 | 128.29154 | 22955 ft | 467 kts | 136° |
| 2026-05-01 13:26 | 36.03786 | 128.31951 | 22956 ft | 467 kts | 136° |
| 2026-05-01 13:26 | 36.01442 | 128.34749 | 22956 ft | 468 kts | 136° |
| 2026-05-01 13:26 | 35.99105 | 128.37539 | 22942 ft | 466 kts | 136° |
| 2026-05-01 13:27 | 35.96780 | 128.40309 | 22943 ft | 463 kts | 136° |
| 2026-05-01 13:27 | 35.94459 | 128.43073 | 22941 ft | 463 kts | 136° |
| 2026-05-01 13:27 | 35.89842 | 128.48566 | 22932 ft | 464 kts | 137° |
| 2026-05-01 13:28 | 35.85185 | 128.54061 | 22442 ft | 459 kts | 141° |
| 2026-05-01 13:28 | 35.82554 | 128.56269 | 21762 ft | 454 kts | 154° |
| 2026-05-01 13:29 | 35.76624 | 128.58450 | 20453 ft | 438 kts | 180° |
| 2026-05-01 13:29 | 35.70680 | 128.58160 | 19154 ft | 426 kts | 189° |
| 2026-05-01 13:30 | 35.59089 | 128.57104 | 16639 ft | 407 kts | 188° |
| 2026-05-01 13:31 | 35.53523 | 128.56602 | 15510 ft | 398 kts | 188° |
| 2026-05-01 13:31 | 35.45329 | 128.56752 | 15009 ft | 403 kts | 171° |
| 2026-05-01 13:32 | 35.40109 | 128.58009 | 14742 ft | 351 kts | 171° |
| 2026-05-01 13:33 | 35.33351 | 128.59638 | 12163 ft | 321 kts | 171° |
| 2026-05-01 13:33 | 35.29043 | 128.60682 | 10437 ft | 306 kts | 170° |
| 2026-05-01 13:34 | 35.24890 | 128.61684 | 10393 ft | 305 kts | 170° |
| 2026-05-01 13:34 | 35.20716 | 128.62690 | 10027 ft | 305 kts | 169° |
| 2026-05-01 13:35 | 35.16554 | 128.63692 | 9396 ft | 305 kts | 169° |
| 2026-05-01 13:35 | 35.14471 | 128.64194 | 9091 ft | 303 kts | 169° |
| 2026-05-01 13:35 | 35.10460 | 128.65549 | 8482 ft | 296 kts | 144° |
| 2026-05-01 13:36 | 35.08814 | 128.66984 | 8194 ft | 286 kts | 145° |
| 2026-05-01 13:36 | 35.07157 | 128.68278 | 7912 ft | 279 kts | 146° |
| 2026-05-01 13:36 | 35.04073 | 128.70798 | 7418 ft | 258 kts | 144° |
| 2026-05-01 13:37 | 35.02608 | 128.72017 | 7187 ft | 254 kts | 144° |
| 2026-05-01 13:37 | 35.01265 | 128.73395 | 6995 ft | 255 kts | 122° |
| 2026-05-01 13:37 | 35.00472 | 128.75278 | 6888 ft | 247 kts | 114° |
| 2026-05-01 13:37 | 34.99638 | 128.77089 | 6626 ft | 247 kts | 116° |
| 2026-05-01 13:38 | 34.97975 | 128.80759 | 5960 ft | 238 kts | 115° |
| 2026-05-01 13:38 | 34.97181 | 128.82564 | 5641 ft | 242 kts | 115° |
| 2026-05-01 13:38 | 34.96550 | 128.84426 | 5291 ft | 232 kts | 93° |
| 2026-05-01 13:39 | 34.96610 | 128.86319 | 5025 ft | 216 kts | 79° |
| 2026-05-01 13:39 | 34.96759 | 128.88081 | 4780 ft | 207 kts | 77° |
| 2026-05-01 13:39 | 34.96914 | 128.89788 | 4514 ft | 199 kts | 77° |
| 2026-05-01 13:39 | 34.97058 | 128.91447 | 4274 ft | 195 kts | 78° |
| 2026-05-01 13:40 | 34.97197 | 128.93081 | 4024 ft | 193 kts | 78° |
| 2026-05-01 13:40 | 34.97465 | 128.94645 | 3728 ft | 182 kts | 56° |
| 2026-05-01 13:40 | 34.98310 | 128.95673 | 3484 ft | 166 kts | 19° |
| 2026-05-01 13:40 | 34.99397 | 128.95876 | 3345 ft | 157 kts | 360° |
| 2026-05-01 13:41 | 35.00470 | 128.95902 | 3142 ft | 153 kts | 349° |
| 2026-05-01 13:41 | 35.01530 | 128.95783 | 2943 ft | 153 kts | 351° |
| 2026-05-01 13:41 | 35.02579 | 128.95656 | 2755 ft | 149 kts | 349° |
| 2026-05-01 13:41 | 35.03591 | 128.95526 | 2556 ft | 145 kts | 349° |
| 2026-05-01 13:42 | 35.04585 | 128.95399 | 2363 ft | 141 kts | 349° |
| 2026-05-01 13:42 | 35.05552 | 128.95275 | 2168 ft | 139 kts | 349° |
| 2026-05-01 13:42 | 35.06499 | 128.95152 | 1990 ft | 138 kts | 349° |
| 2026-05-01 13:42 | 35.07446 | 128.95028 | 1803 ft | 138 kts | 349° |
| 2026-05-01 13:43 | 35.08413 | 128.94913 | 1625 ft | 140 kts | 349° |
| 2026-05-01 13:43 | 35.09389 | 128.94785 | 1439 ft | 140 kts | 349° |
| 2026-05-01 13:43 | 35.10345 | 128.94660 | 1257 ft | 137 kts | 349° |
| 2026-05-01 13:43 | 35.11291 | 128.94548 | 1074 ft | 137 kts | 350° |
| 2026-05-01 13:44 | 35.12248 | 128.94428 | 910 ft | 140 kts | 350° |
| 2026-05-01 13:44 | 35.13227 | 128.94311 | 773 ft | 140 kts | 351° |
| 2026-05-01 13:44 | 35.14196 | 128.94186 | 557 ft | 141 kts | 351° |
| 2026-05-01 13:44 | 35.15186 | 128.94050 | 347 ft | 144 kts | 352° |
| 2026-05-01 13:45 | 35.16183 | 128.93916 | 136 ft | 147 kts | 353° |
| 2026-05-01 13:45 | 35.17176 | 128.93797 | 31 ft | 137 kts | 355° |
| 2026-05-01 13:45 | 35.17918 | 128.93701 | 28 ft | 72 kts | 353° |
| 2026-05-01 13:45 | 35.18255 | 128.93655 | 27 ft | 33 kts | 357° |
| 2026-05-01 13:46 | 35.18396 | 128.93690 | 27 ft | 8 kts | 21° |
| 2026-05-01 13:46 | 35.18418 | 128.93701 | 27 ft | 7 kts | 21° |
| 2026-05-01 13:46 | 35.18483 | 128.93740 | 28 ft | 13 kts | 26° |
| 2026-05-01 13:46 | 35.18566 | 128.93801 | 27 ft | 14 kts | 49° |
| 2026-05-01 13:47 | 35.18597 | 128.93910 | 28 ft | 14 kts | 86° |
| 2026-05-01 13:47 | 35.18606 | 128.94028 | 28 ft | 14 kts | 86° |
| 2026-05-01 13:47 | 35.18559 | 128.94115 | 27 ft | 12 kts | 157° |
| 2026-05-01 13:47 | 35.18473 | 128.94130 | 29 ft | 13 kts | 174° |
| 2026-05-01 13:48 | 35.18372 | 128.94144 | 28 ft | 16 kts | 174° |
| 2026-05-01 13:48 | 35.18256 | 128.94158 | 28 ft | 18 kts | 174° |
| 2026-05-01 13:48 | 35.18126 | 128.94175 | 29 ft | 20 kts | 174° |
| 2026-05-01 13:48 | 35.17985 | 128.94191 | 28 ft | 21 kts | 174° |
| 2026-05-01 13:49 | 35.17842 | 128.94209 | 29 ft | 18 kts | 174° |
| 2026-05-01 13:49 | 35.17759 | 128.94298 | 29 ft | 16 kts | 115° |
| 2026-05-01 13:49 | 35.17695 | 128.94409 | 29 ft | 15 kts | 156° |
| 2026-05-01 13:49 | 35.17588 | 128.94430 | 29 ft | 16 kts | 174° |
| 2026-05-01 13:50 | 35.17479 | 128.94445 | 29 ft | 10 kts | 173° |
| 2026-05-01 13:50 | 35.17431 | 128.94462 | 29 ft | 7 kts | 144° |
| 2026-05-01 13:50 | 35.17404 | 128.94509 | 29 ft | 3 kts | 116° |
| 2026-05-01 13:50 | 35.17400 | 128.94519 | 29 ft | 2 kts | 114° |
| 2026-05-01 13:51 | 35.17393 | 128.94538 | 29 ft | 1 kts | 114° |
| 2026-05-01 13:51 | 35.17390 | 128.94547 | 29 ft | 0 kts | 114° |
| 2026-05-01 13:51 | 35.17387 | 128.94554 | 29 ft | 2 kts | 114° |
| 2026-05-01 13:51 | 35.17387 | 128.94555 | 29 ft | 0 kts | 114° |